sensor_id;sensor_type;location;lat;lon;timestamp;temperature;humidity
1992;DHT22;997;48.448;8.924;2023-07-13T03:04:24;19.70;99.90
1992;DHT22;997;48.448;8.924;2023-07-13T03:06:49;19.60;99.90
1992;DHT22;997;48.448;8.924;2023-07-13T03:09:15;19.50;99.90
1992;DHT22;997;48.448;8.924;2023-07-13T03:11:41;19.40;99.90
1992;DHT22;997;48.448;8.924;2023-07-13T03:14:07;19.40;99.90
1992;DHT22;997;48.448;8.924;2023-07-13T03:16:33;19.30;99.90
1992;DHT22;997;48.448;8.924;2023-07-13T03:18:59;19.30;99.90
1992;DHT22;997;48.448;8.924;2023-07-13T03:21:25;19.30;99.90
1992;DHT22;997;48.448;8.924;2023-07-13T03:23:50;19.30;99.90
1992;DHT22;997;48.448;8.924;2023-07-13T03:26:18;19.30;99.90
1992;DHT22;997;48.448;8.924;2023-07-13T03:28:44;19.20;99.90
1992;DHT22;997;48.448;8.924;2023-07-13T03:31:17;19.30;99.90
1992;DHT22;997;48.448;8.924;2023-07-13T03:33:43;19.30;99.90
1992;DHT22;997;48.448;8.924;2023-07-13T03:36:17;19.20;99.90
1992;DHT22;997;48.448;8.924;2023-07-13T03:38:48;19.20;99.90
1992;DHT22;997;48.448;8.924;2023-07-13T03:41:15;19.10;99.90
1992;DHT22;997;48.448;8.924;2023-07-13T03:43:41;19.10;99.90
1992;DHT22;997;48.448;8.924;2023-07-13T03:46:06;19.10;99.90
1992;DHT22;997;48.448;8.924;2023-07-13T03:48:32;19.10;99.90
1992;DHT22;997;48.448;8.924;2023-07-13T03:50:58;19.20;99.90
1992;DHT22;997;48.448;8.924;2023-07-13T03:53:23;19.20;99.90
1992;DHT22;997;48.448;8.924;2023-07-13T03:55:49;19.20;99.90
1992;DHT22;997;48.448;8.924;2023-07-13T03:58:34;19.20;99.90
1992;DHT22;997;48.448;8.924;2023-07-13T04:01:01;19.10;99.90
1992;DHT22;997;48.448;8.924;2023-07-13T04:03:28;19.00;99.90
1992;DHT22;997;48.448;8.924;2023-07-13T04:06:02;19.10;99.90
1992;DHT22;997;48.448;8.924;2023-07-13T04:08:30;19.20;99.90
1992;DHT22;997;48.448;8.924;2023-07-13T04:10:57;19.20;99.90
1992;DHT22;997;48.448;8.924;2023-07-13T04:13:24;19.10;99.90
1992;DHT22;997;48.448;8.924;2023-07-13T04:15:50;19.20;99.90
1992;DHT22;997;48.448;8.924;2023-07-13T04:18:16;19.20;99.90
1992;DHT22;997;48.448;8.924;2023-07-13T04:20:42;19.10;99.90
1992;DHT22;997;48.448;8.924;2023-07-13T04:23:08;19.00;99.90
1992;DHT22;997;48.448;8.924;2023-07-13T04:25:33;18.90;99.90
1992;DHT22;997;48.448;8.924;2023-07-13T04:27:59;18.90;99.90
1992;DHT22;997;48.448;8.924;2023-07-13T04:30:25;18.80;99.90
1992;DHT22;997;48.448;8.924;2023-07-13T04:32:52;18.80;99.90
1992;DHT22;997;48.448;8.924;2023-07-13T04:35:19;18.80;99.90
1992;DHT22;997;48.448;8.924;2023-07-13T04:37:47;18.80;99.90
1992;DHT22;997;48.448;8.924;2023-07-13T04:40:14;18.80;99.90
1992;DHT22;997;48.448;8.924;2023-07-13T04:42:39;18.80;99.90
1992;DHT22;997;48.448;8.924;2023-07-13T04:45:06;18.80;99.90
1992;DHT22;997;48.448;8.924;2023-07-13T04:47:32;18.70;99.90
1992;DHT22;997;48.448;8.924;2023-07-13T04:49:58;18.70;99.90
1992;DHT22;997;48.448;8.924;2023-07-13T04:52:24;18.80;99.90
1992;DHT22;997;48.448;8.924;2023-07-13T04:54:50;18.80;99.90
1992;DHT22;997;48.448;8.924;2023-07-13T04:57:15;18.70;99.90
1992;DHT22;997;48.448;8.924;2023-07-13T04:59:41;18.70;99.90
1992;DHT22;997;48.448;8.924;2023-07-13T05:02:07;18.70;99.90
1992;DHT22;997;48.448;8.924;2023-07-13T05:04:33;18.60;99.90
1992;DHT22;997;48.448;8.924;2023-07-13T05:06:59;18.80;99.90
1992;DHT22;997;48.448;8.924;2023-07-13T05:09:25;18.70;99.90
1992;DHT22;997;48.448;8.924;2023-07-13T05:11:51;18.70;99.90
1992;DHT22;997;48.448;8.924;2023-07-13T05:14:16;18.70;99.90
1992;DHT22;997;48.448;8.924;2023-07-13T05:16:42;18.80;99.90
1992;DHT22;997;48.448;8.924;2023-07-13T05:19:08;18.70;99.90
1992;DHT22;997;48.448;8.924;2023-07-13T05:21:34;18.70;99.90
1992;DHT22;997;48.448;8.924;2023-07-13T05:24:00;18.60;99.90
1992;DHT22;997;48.448;8.924;2023-07-13T05:26:25;18.70;99.90
1992;DHT22;997;48.448;8.924;2023-07-13T05:28:51;18.60;99.90
1992;DHT22;997;48.448;8.924;2023-07-13T05:31:16;18.60;99.90
1992;DHT22;997;48.448;8.924;2023-07-13T05:33:42;18.70;99.90
1992;DHT22;997;48.448;8.924;2023-07-13T05:36:08;18.70;99.90
1992;DHT22;997;48.448;8.924;2023-07-13T05:38:34;18.70;99.90
1992;DHT22;997;48.448;8.924;2023-07-13T05:40:59;18.70;99.90
1992;DHT22;997;48.448;8.924;2023-07-13T05:43:26;18.70;99.90
1992;DHT22;997;48.448;8.924;2023-07-13T05:45:53;18.60;99.90
1992;DHT22;997;48.448;8.924;2023-07-13T05:48:19;18.60;99.90
1992;DHT22;997;48.448;8.924;2023-07-13T05:50:45;18.70;99.90
1992;DHT22;997;48.448;8.924;2023-07-13T05:53:12;18.70;99.90
1992;DHT22;997;48.448;8.924;2023-07-13T05:55:45;18.80;99.90
1992;DHT22;997;48.448;8.924;2023-07-13T05:58:13;18.80;99.90
1992;DHT22;997;48.448;8.924;2023-07-13T06:00:39;18.90;99.90
1992;DHT22;997;48.448;8.924;2023-07-13T06:03:06;18.90;99.90
1992;DHT22;997;48.448;8.924;2023-07-13T06:05:32;19.00;99.90
1992;DHT22;997;48.448;8.924;2023-07-13T06:07:59;19.10;99.90
1992;DHT22;997;48.448;8.924;2023-07-13T06:10:25;19.20;99.90
1992;DHT22;997;48.448;8.924;2023-07-13T06:12:51;19.30;99.90
1992;DHT22;997;48.448;8.924;2023-07-13T06:15:17;19.40;99.90
1992;DHT22;997;48.448;8.924;2023-07-13T06:17:42;19.50;99.90
1992;DHT22;997;48.448;8.924;2023-07-13T06:20:09;19.60;99.90
1992;DHT22;997;48.448;8.924;2023-07-13T06:22:35;19.60;99.90
1992;DHT22;997;48.448;8.924;2023-07-13T06:25:01;19.50;99.90
1992;DHT22;997;48.448;8.924;2023-07-13T06:27:26;19.60;99.90
1992;DHT22;997;48.448;8.924;2023-07-13T06:29:52;19.60;99.90
1992;DHT22;997;48.448;8.924;2023-07-13T06:32:18;19.70;99.90
1992;DHT22;997;48.448;8.924;2023-07-13T06:34:43;19.80;99.90
1992;DHT22;997;48.448;8.924;2023-07-13T06:37:09;19.90;99.90
1992;DHT22;997;48.448;8.924;2023-07-13T06:39:35;20.00;99.90
1992;DHT22;997;48.448;8.924;2023-07-13T06:42:01;20.00;99.90
1992;DHT22;997;48.448;8.924;2023-07-13T06:44:26;20.20;99.90
1992;DHT22;997;48.448;8.924;2023-07-13T06:46:52;20.30;99.90
1992;DHT22;997;48.448;8.924;2023-07-13T06:49:18;20.40;99.90
1992;DHT22;997;48.448;8.924;2023-07-13T06:51:43;20.40;99.90
1992;DHT22;997;48.448;8.924;2023-07-13T06:54:09;20.50;99.90
1992;DHT22;997;48.448;8.924;2023-07-13T06:56:34;20.60;99.90
1992;DHT22;997;48.448;8.924;2023-07-13T06:59:00;20.80;99.90
1992;DHT22;997;48.448;8.924;2023-07-13T07:01:26;20.70;99.90
1992;DHT22;997;48.448;8.924;2023-07-13T07:03:51;20.80;99.90
1992;DHT22;997;48.448;8.924;2023-07-13T07:06:19;21.00;99.90
1992;DHT22;997;48.448;8.924;2023-07-13T07:08:45;21.20;99.90
1992;DHT22;997;48.448;8.924;2023-07-13T07:11:18;21.40;99.90
1992;DHT22;997;48.448;8.924;2023-07-13T07:13:44;21.50;99.90
1992;DHT22;997;48.448;8.924;2023-07-13T07:16:10;21.70;99.90
1992;DHT22;997;48.448;8.924;2023-07-13T07:18:35;21.90;99.90
1992;DHT22;997;48.448;8.924;2023-07-13T07:21:01;21.80;99.90
1992;DHT22;997;48.448;8.924;2023-07-13T07:23:27;21.80;99.90
1992;DHT22;997;48.448;8.924;2023-07-13T07:25:53;21.70;99.90
1992;DHT22;997;48.448;8.924;2023-07-13T07:28:19;21.40;99.90
1992;DHT22;997;48.448;8.924;2023-07-13T07:30:46;21.40;99.90
1992;DHT22;997;48.448;8.924;2023-07-13T07:33:12;21.60;99.90
1992;DHT22;997;48.448;8.924;2023-07-13T07:35:38;21.80;99.90
1992;DHT22;997;48.448;8.924;2023-07-13T07:38:04;21.90;99.90
1992;DHT22;997;48.448;8.924;2023-07-13T07:40:30;22.00;99.90
1992;DHT22;997;48.448;8.924;2023-07-13T07:42:56;22.00;99.90
1992;DHT22;997;48.448;8.924;2023-07-13T07:45:22;22.00;99.90
1992;DHT22;997;48.448;8.924;2023-07-13T07:47:48;22.30;99.90
1992;DHT22;997;48.448;8.924;2023-07-13T07:50:13;22.50;99.90
1992;DHT22;997;48.448;8.924;2023-07-13T07:52:39;22.40;99.90
1992;DHT22;997;48.448;8.924;2023-07-13T07:55:06;22.40;99.90
1992;DHT22;997;48.448;8.924;2023-07-13T07:57:32;22.60;99.90
1992;DHT22;997;48.448;8.924;2023-07-13T07:59:58;22.70;99.90
1992;DHT22;997;48.448;8.924;2023-07-13T08:02:25;22.90;99.90
1992;DHT22;997;48.448;8.924;2023-07-13T08:04:51;23.10;99.90
1992;DHT22;997;48.448;8.924;2023-07-13T08:07:17;23.00;99.90
1992;DHT22;997;48.448;8.924;2023-07-13T08:09:42;23.10;99.90
1992;DHT22;997;48.448;8.924;2023-07-13T08:12:08;23.20;99.90
1992;DHT22;997;48.448;8.924;2023-07-13T08:14:34;23.10;99.90
1992;DHT22;997;48.448;8.924;2023-07-13T08:16:59;23.10;99.90
1992;DHT22;997;48.448;8.924;2023-07-13T08:19:25;23.00;99.90
1992;DHT22;997;48.448;8.924;2023-07-13T08:21:51;23.10;99.90
1992;DHT22;997;48.448;8.924;2023-07-13T08:24:17;23.10;99.90
1992;DHT22;997;48.448;8.924;2023-07-13T08:26:44;23.10;99.90
1992;DHT22;997;48.448;8.924;2023-07-13T08:29:11;23.10;99.90
1992;DHT22;997;48.448;8.924;2023-07-13T08:31:37;23.10;99.90
1992;DHT22;997;48.448;8.924;2023-07-13T08:34:03;23.30;99.90
1992;DHT22;997;48.448;8.924;2023-07-13T08:36:29;23.30;99.90
1992;DHT22;997;48.448;8.924;2023-07-13T08:38:55;23.40;99.90
1992;DHT22;997;48.448;8.924;2023-07-13T08:41:21;23.30;99.90
1992;DHT22;997;48.448;8.924;2023-07-13T08:43:50;23.40;99.90
1992;DHT22;997;48.448;8.924;2023-07-13T08:46:35;23.50;99.90
1992;DHT22;997;48.448;8.924;2023-07-13T08:49:05;23.40;99.90
1992;DHT22;997;48.448;8.924;2023-07-13T08:56:38;23.10;99.90
1992;DHT22;997;48.448;8.924;2023-07-13T08:59:13;23.30;99.90
1992;DHT22;997;48.448;8.924;2023-07-13T09:04:29;23.60;99.90
1992;DHT22;997;48.448;8.924;2023-07-13T09:07:23;23.90;99.90
1992;DHT22;997;48.448;8.924;2023-07-13T09:10:11;24.20;99.90
1992;DHT22;997;48.448;8.924;2023-07-13T09:13:00;24.20;99.50
1992;DHT22;997;48.448;8.924;2023-07-13T09:15:34;24.30;99.90
1992;DHT22;997;48.448;8.924;2023-07-13T21:17:38;22.60;87.10
1992;DHT22;997;48.448;8.924;2023-07-13T21:20:14;22.40;87.90
1992;DHT22;997;48.448;8.924;2023-07-13T21:22:40;22.30;89.70
1992;DHT22;997;48.448;8.924;2023-07-13T21:25:31;22.20;89.90
1992;DHT22;997;48.448;8.924;2023-07-13T21:27:59;22.10;90.50
